Creston, IA

3:27 PM CDT on August 27, 2016 (GMT -0500)
Creston Municipal

Weather History for KCSQ - January, 2014

Change the Weather History Date:

Friday, January 17, 2014

  Actual Average Record
Temperature  
Mean Temperature 15 °F -  
Max Temperature 24 °F 28 °F 58 °F (1989)
Min Temperature 6 °F 10 °F -11 °F (1997)
Degree Days  
Heating Degree Days 50    
Moisture  
Dew Point 3 °F    
Average Humidity 60    
Maximum Humidity 79    
Minimum Humidity 42    
Precipitation  
Precipitation 0.00 in - - ()
Sea Level Pressure  
Sea Level Pressure 30.02 in    
Wind  
Wind Speed 19 mph (WNW)    
Max Wind Speed 30 mph    
Max Gust Speed 38 mph    
Visibility 10 miles    
Events Snow    
Averages and records for this station are not official NWS values.
T = Trace of Precipitation, MM = Missing Value Source: NWS Daily Summary

Daily Weather History Graph

Daily Weather History Graph

Search for Another Location

Airport or City:

Trip Planner

Search our weather history database for the weather conditions in past years. The results will help you decide how hot, cold, wet, or windy it might be!

Date:

Astronomy

Jan. 17, 2014 Rise Set
Actual Time 7:39 AM CST 5:16 PM CST
Civil Twilight 7:09 AM CST 5:46 PM CST
Nautical Twilight 6:35 AM CST 6:20 PM CST
Astronomical Twilight 6:02 AM CST 6:53 PM CST
Moon 7:04 PM CST (1/17) 8:06 AM CST (1/17)
Length of Visible Light 10h 37m
Length of Day
9h 37m
Full, 98% of the Moon is Illuminated
Jan 17
Full
Jan 23
Last Quarter
Jan 30
New
Feb 6
First Quarter
Feb 14
Full

Hourly Weather History & Observations

Time (CST) Temp. Windchill Dew Point Humidity Pressure Visibility Wind Dir Wind Speed Gust Speed Precip Events Conditions
12:40 AM 12.2 °F -6.7 °F 3.2 °F 67% 29.95 in 10.0 mi NNW 21.9 mph 31.1 mph N/A   Mostly Cloudy
12:55 AM 12.2 °F -5.8 °F 5.0 °F 73% 29.95 in 9.0 mi NW 19.6 mph 27.6 mph N/A   Overcast
1:15 AM 12.2 °F -7.9 °F 5.0 °F 73% 29.95 in 4.0 mi NW 25.3 mph 31.1 mph N/A Snow Light Snow
1:30 AM 12.2 °F -8.2 °F 6.8 °F 79% 29.96 in 3.0 mi NW 26.5 mph - N/A Snow Light Snow
1:55 AM 10.4 °F -9.1 °F 3.2 °F 73% 29.97 in 9.0 mi NW 21.9 mph 32.2 mph N/A   Overcast
2:15 AM 10.4 °F -11.0 °F 1.4 °F 67% 29.96 in 10.0 mi NNW 27.6 mph 38.0 mph N/A   Mostly Cloudy
2:35 AM 10.4 °F -11.7 °F 1.4 °F 67% 29.96 in 10.0 mi NW 29.9 mph 38.0 mph N/A   Overcast
2:55 AM 10.4 °F -11.0 °F 1.4 °F 67% 29.97 in 9.0 mi NW 27.6 mph 35.7 mph N/A Snow Light Snow
3:15 AM 10.4 °F -11.4 °F -0.4 °F 62% 29.97 in 10.0 mi NNW 28.8 mph 35.7 mph N/A   Overcast
3:35 AM 10.4 °F -9.9 °F 1.4 °F 67% 29.97 in 10.0 mi NW 24.2 mph 31.1 mph N/A   Overcast
3:55 AM 8.6 °F -11.9 °F -0.4 °F 67% 29.98 in 10.0 mi NW 23.0 mph 35.7 mph N/A   Overcast
4:15 AM 8.6 °F -12.7 °F -0.4 °F 67% 29.98 in 10.0 mi NW 25.3 mph 36.8 mph N/A   Overcast
4:35 AM 8.6 °F -11.4 °F -0.4 °F 67% 30.00 in 10.0 mi NW 21.9 mph 34.5 mph N/A   Overcast
4:55 AM 8.6 °F -10.5 °F -0.4 °F 67% 30.00 in 10.0 mi NW 19.6 mph 32.2 mph N/A   Mostly Cloudy
5:15 AM 8.6 °F -12.3 °F -2.2 °F 62% 30.00 in 10.0 mi NNW 24.2 mph 32.2 mph N/A   Overcast
5:35 AM 6.8 °F -11.8 °F -2.2 °F 67% 30.01 in 10.0 mi NW 17.3 mph 25.3 mph N/A   Overcast
5:55 AM 6.8 °F -12.4 °F -2.2 °F 67% 30.01 in 10.0 mi NNW 18.4 mph 26.5 mph N/A   Overcast
6:15 AM 6.8 °F -11.8 °F -2.2 °F 67% 30.02 in 10.0 mi NW 17.3 mph 25.3 mph N/A   Overcast
6:35 AM 6.8 °F -12.4 °F -2.2 °F 67% 30.02 in 10.0 mi NW 18.4 mph 24.2 mph N/A   Overcast
6:55 AM 6.8 °F -11.8 °F -2.2 °F 67% 30.02 in 10.0 mi NW 17.3 mph 25.3 mph N/A   Overcast
7:15 AM 6.8 °F -11.3 °F -2.2 °F 67% 30.03 in 10.0 mi NW 16.1 mph 25.3 mph N/A   Mostly Cloudy
7:35 AM 6.8 °F -12.4 °F -2.2 °F 67% 30.03 in 10.0 mi NW 18.4 mph - N/A   Clear
7:55 AM 6.8 °F -13.4 °F -2.2 °F 67% 30.03 in 10.0 mi NW 20.7 mph - N/A   Clear
8:15 AM 6.8 °F -12.9 °F -2.2 °F 67% 30.04 in 10.0 mi NW 19.6 mph 25.3 mph N/A   Clear
8:35 AM 6.8 °F -11.8 °F -2.2 °F 67% 30.05 in 10.0 mi NW 17.3 mph 23.0 mph N/A   Clear
8:55 AM 8.6 °F -10.5 °F -0.4 °F 67% 30.05 in 10.0 mi NW 19.6 mph 27.6 mph N/A   Partly Cloudy
9:15 AM 8.6 °F -11.4 °F -0.4 °F 67% 30.06 in 10.0 mi NW 21.9 mph - N/A   Mostly Cloudy
9:35 AM 8.6 °F -10.5 °F -0.4 °F 67% 30.06 in 10.0 mi WNW 19.6 mph 26.5 mph N/A   Mostly Cloudy
9:55 AM 10.4 °F -8.6 °F 1.4 °F 67% 30.07 in 10.0 mi NW 20.7 mph - N/A   Mostly Cloudy
10:15 AM 10.4 °F -7.7 °F 1.4 °F 67% 30.07 in 10.0 mi NW 18.4 mph 24.2 mph N/A   Overcast
10:35 AM 12.2 °F -6.7 °F 3.2 °F 67% 30.08 in 10.0 mi NW 21.9 mph - N/A   Partly Cloudy
10:55 AM 14.0 °F -3.9 °F 3.2 °F 62% 30.07 in 10.0 mi NW 20.7 mph - N/A   Clear
11:15 AM 14.0 °F -3.0 °F 5.0 °F 67% 30.08 in 10.0 mi NW 18.4 mph - N/A   Clear
11:35 AM 15.8 °F -0.6 °F 6.8 °F 68% 30.08 in 10.0 mi NW 18.4 mph - N/A   Clear
11:55 AM 15.8 °F -1.1 °F 6.8 °F 68% 30.07 in 10.0 mi NW 19.6 mph - N/A   Clear
12:15 PM 17.6 °F 2.2 °F 6.8 °F 63% 30.06 in 10.0 mi NW 17.3 mph 25.3 mph N/A   Clear
12:35 PM 19.4 °F 4.1 °F 8.6 °F 63% 30.06 in 10.0 mi NW 18.4 mph 25.3 mph N/A   Clear
12:55 PM 19.4 °F 3.2 °F 8.6 °F 63% 30.05 in 10.0 mi NW 20.7 mph - N/A   Clear
1:15 PM 19.4 °F 3.6 °F 8.6 °F 63% 30.05 in 10.0 mi NW 19.6 mph - N/A   Clear
1:35 PM 21.2 °F 6.4 °F 8.6 °F 58% 30.05 in 10.0 mi NW 18.4 mph - N/A   Clear
1:55 PM 23.0 °F 8.7 °F 8.6 °F 54% 30.05 in 10.0 mi NW 18.4 mph - N/A   Clear
2:15 PM 23.0 °F 10.1 °F 8.6 °F 54% 30.05 in 10.0 mi NW 15.0 mph 20.7 mph N/A   Clear
2:35 PM 23.0 °F 8.3 °F 8.6 °F 54% 30.05 in 10.0 mi NW 19.6 mph - N/A   Clear
2:55 PM 24.8 °F 11.1 °F 8.6 °F 50% 30.05 in 10.0 mi NW 18.4 mph - N/A   Clear
3:15 PM 24.8 °F 12.9 °F 8.6 °F 50% 30.06 in 10.0 mi NW 13.8 mph - N/A   Clear
3:35 PM 24.8 °F 12.9 °F 8.6 °F 50% 30.06 in 10.0 mi WNW 13.8 mph - N/A   Clear
3:55 PM 24.8 °F 14.0 °F 8.6 °F 50% 30.06 in 10.0 mi WNW 11.5 mph 17.3 mph N/A   Clear
4:15 PM 24.8 °F 13.4 °F 8.6 °F 50% 30.05 in 10.0 mi WNW 12.7 mph - N/A   Clear
4:35 PM 24.8 °F 14.6 °F 6.8 °F 46% 30.06 in 10.0 mi WNW 10.4 mph - N/A   Clear
4:55 PM 23.0 °F 13.9 °F 6.8 °F 50% 30.06 in 10.0 mi WNW 8.1 mph - N/A   Clear
5:15 PM 21.2 °F 11.7 °F 6.8 °F 54% 30.05 in 10.0 mi West 8.1 mph - N/A   Clear
5:35 PM 19.4 °F 10.4 °F 5.0 °F 54% 30.05 in 10.0 mi West 6.9 mph - N/A   Clear
5:55 PM 17.6 °F 8.2 °F 5.0 °F 58% 30.05 in - WSW 6.9 mph - N/A   Clear
6:15 PM 17.6 °F 6.4 °F 5.0 °F 58% 30.05 in 10.0 mi West 9.2 mph - N/A   Clear
6:35 PM 15.8 °F 5.1 °F 3.2 °F 58% 30.04 in 10.0 mi West 8.1 mph - N/A   Clear
6:55 PM 15.8 °F 7.2 °F 3.2 °F 58% 30.04 in 10.0 mi West 5.8 mph - N/A   Clear
7:15 PM 17.6 °F 9.3 °F 1.4 °F 49% 30.04 in 10.0 mi West 5.8 mph - N/A   Clear
7:35 PM 15.8 °F 7.2 °F -0.4 °F 49% 30.03 in 10.0 mi West 5.8 mph - N/A   Clear
7:55 PM 17.6 °F 8.2 °F -2.2 °F 42% 30.03 in 10.0 mi West 6.9 mph - N/A   Clear
8:15 PM 17.6 °F 10.7 °F -2.2 °F 42% 30.02 in 10.0 mi West 4.6 mph - N/A   Partly Cloudy
8:35 PM 17.6 °F 9.3 °F -0.4 °F 45% 30.02 in 10.0 mi SW 5.8 mph - N/A   Partly Cloudy
8:55 PM 17.6 °F 10.7 °F -0.4 °F 45% 30.00 in 10.0 mi SW 4.6 mph - N/A   Scattered Clouds
9:15 PM 17.6 °F 9.3 °F 3.2 °F 53% 29.99 in 10.0 mi South 5.8 mph - N/A   Mostly Cloudy
9:35 PM 17.6 °F 12.3 °F 5.0 °F 58% 29.98 in 10.0 mi South 3.5 mph - N/A   Mostly Cloudy
9:55 PM 17.6 °F 7.3 °F 3.2 °F 53% 29.98 in 10.0 mi South 8.1 mph - N/A   Overcast
10:15 PM 17.6 °F 6.4 °F 3.2 °F 53% 29.96 in 10.0 mi South 9.2 mph - N/A   Overcast
10:35 PM 17.6 °F 5.7 °F 3.2 °F 53% 29.94 in 10.0 mi South 10.4 mph - N/A   Overcast
10:55 PM 19.4 °F 7.2 °F 3.2 °F 49% 29.93 in 10.0 mi South 11.5 mph - N/A   Overcast
11:10 PM 19.4 °F 7.2 °F 1.4 °F 46% 29.92 in 10.0 mi South 11.5 mph - N/A   Overcast
11:35 PM 19.4 °F 7.9 °F 3.2 °F 49% 29.89 in 10.0 mi South 10.4 mph - N/A   Overcast
11:55 PM 21.2 °F 9.5 °F 3.2 °F 46% 29.88 in 10.0 mi South 11.5 mph - N/A   Overcast